createdAt,value
2023-03-17T00:02:21.527Z,-3.56
2023-03-17T00:04:52.621Z,-3.57
2023-03-17T00:07:22.812Z,-3.55
2023-03-17T00:09:54.000Z,-3.52
2023-03-17T00:12:23.900Z,-3.52
2023-03-17T00:14:53.826Z,-3.50
2023-03-17T00:17:24.501Z,-3.46
2023-03-17T00:19:54.184Z,-3.45
2023-03-17T00:22:24.196Z,-3.45
2023-03-17T00:24:55.521Z,-3.43
2023-03-17T00:27:25.639Z,-3.42
2023-03-17T00:29:55.442Z,-3.40
2023-03-17T00:32:25.568Z,-3.34
2023-03-17T00:34:55.270Z,-3.33
2023-03-17T00:37:25.392Z,-3.30
2023-03-17T00:39:56.632Z,-3.31
2023-03-17T00:42:28.889Z,-3.33
2023-03-17T00:44:58.577Z,-3.31
2023-03-17T00:47:28.805Z,-3.31
2023-03-17T00:49:58.767Z,-3.25
2023-03-17T00:52:28.846Z,-3.23
2023-03-17T00:55:00.167Z,-3.29
2023-03-17T00:57:30.667Z,-3.33
2023-03-17T01:00:01.052Z,-3.31
2023-03-17T01:02:31.264Z,-3.29
2023-03-17T01:05:06.889Z,-3.29
2023-03-17T01:07:37.429Z,-3.25
2023-03-17T01:10:12.817Z,-3.20
2023-03-17T01:12:43.277Z,-3.20
2023-03-17T01:15:15.596Z,-3.21
2023-03-17T01:17:46.191Z,-3.21
2023-03-17T01:20:18.216Z,-3.18
2023-03-17T01:22:48.317Z,-3.14
2023-03-17T01:25:19.959Z,-3.16
2023-03-17T01:27:50.595Z,-3.13
2023-03-17T01:30:26.346Z,-3.14
2023-03-17T01:32:57.302Z,-3.10
2023-03-17T01:35:29.758Z,-3.06
2023-03-17T01:38:00.336Z,-3.04
2023-03-17T01:40:32.761Z,-3.04
2023-03-17T01:43:05.927Z,-3.07
2023-03-17T01:45:54.168Z,-3.10
2023-03-17T01:48:25.153Z,-3.11
2023-03-17T01:50:55.378Z,-3.13
2023-03-17T01:53:25.730Z,-3.11
2023-03-17T01:55:58.236Z,-3.15
2023-03-17T01:58:28.587Z,-3.19
2023-03-17T02:00:58.550Z,-3.15
2023-03-17T02:03:30.065Z,-3.14
2023-03-17T02:06:00.818Z,-3.19
2023-03-17T02:08:30.959Z,-3.22
2023-03-17T02:11:02.711Z,-3.21
2023-03-17T02:13:33.406Z,-3.16
2023-03-17T02:16:02.947Z,-3.14
2023-03-17T02:18:33.527Z,-3.17
2023-03-17T02:21:17.936Z,-3.12
2023-03-17T02:23:50.167Z,-3.12
2023-03-17T02:26:21.587Z,-3.17
2023-03-17T02:28:51.894Z,-3.20
2023-03-17T02:31:22.176Z,-3.16
2023-03-17T02:33:55.606Z,-3.15
2023-03-17T02:36:25.544Z,-3.10
2023-03-17T02:38:57.354Z,-3.14
2023-03-17T02:41:27.124Z,-3.15
2023-03-17T02:43:57.199Z,-3.10
2023-03-17T02:46:27.502Z,-3.04
2023-03-17T02:48:58.028Z,-3.07
2023-03-17T02:51:27.664Z,-3.10
2023-03-17T02:53:59.077Z,-3.09
2023-03-17T02:56:28.866Z,-3.06
2023-03-17T02:58:58.797Z,-3.05
2023-03-17T03:01:29.779Z,-3.04
2023-03-17T03:04:00.059Z,-3.08
2023-03-17T03:06:29.847Z,-3.08
2023-03-17T03:09:01.262Z,-3.09
2023-03-17T03:11:30.951Z,-3.05
2023-03-17T03:14:00.876Z,-3.05
2023-03-17T03:16:30.846Z,-3.02
2023-03-17T03:19:01.007Z,-2.98
2023-03-17T03:21:31.038Z,-3.00
2023-03-17T03:24:02.485Z,-3.02
2023-03-17T03:26:32.199Z,-3.05
2023-03-17T03:29:02.489Z,-3.03
2023-03-17T03:31:32.230Z,-3.00
2023-03-17T03:34:02.256Z,-2.96
2023-03-17T03:36:32.646Z,-2.97
2023-03-17T03:39:03.986Z,-2.96
2023-03-17T03:41:34.027Z,-2.93
2023-03-17T03:44:04.054Z,-2.92
2023-03-17T03:46:33.673Z,-2.88
2023-03-17T03:49:03.674Z,-2.87
2023-03-17T03:51:33.319Z,-2.94
2023-03-17T03:54:04.801Z,-2.90
2023-03-17T03:56:34.602Z,-2.87
2023-03-17T03:59:04.614Z,-2.88
2023-03-17T04:01:34.325Z,-2.86
2023-03-17T04:04:04.315Z,-2.87
2023-03-17T04:06:34.050Z,-2.82
2023-03-17T04:09:05.625Z,-2.80
2023-03-17T04:11:35.283Z,-2.83
2023-03-17T04:14:06.674Z,-2.84
2023-03-17T04:16:36.419Z,-2.77
2023-03-17T04:19:06.995Z,-2.76
2023-03-17T04:21:36.622Z,-2.75
2023-03-17T04:24:09.289Z,-2.72
2023-03-17T04:26:38.893Z,-2.70
2023-03-17T04:29:10.657Z,-2.78
2023-03-17T04:31:41.048Z,-2.75
2023-03-17T04:34:14.738Z,-2.76
2023-03-17T04:36:44.491Z,-2.76
2023-03-17T04:39:16.459Z,-2.73
2023-03-17T04:41:46.603Z,-2.78
2023-03-17T04:44:16.712Z,-2.79
2023-03-17T04:46:46.881Z,-2.74
2023-03-17T04:49:16.932Z,-2.67
2023-03-17T04:51:46.789Z,-2.66
2023-03-17T04:54:18.303Z,-2.63
2023-03-17T04:56:47.938Z,-2.62
2023-03-17T04:59:17.872Z,-2.61
2023-03-17T05:01:47.544Z,-2.59
2023-03-17T05:04:30.798Z,-2.57
2023-03-17T05:07:01.505Z,-2.57
2023-03-17T05:09:32.927Z,-2.60
2023-03-17T05:12:02.692Z,-2.57
2023-03-17T05:14:32.788Z,-2.53
2023-03-17T05:17:02.364Z,-2.51
2023-03-17T05:19:32.320Z,-2.51
2023-03-17T05:22:01.990Z,-2.45
2023-03-17T05:24:33.482Z,-2.45
2023-03-17T05:27:03.010Z,-2.43
2023-03-17T05:29:33.041Z,-2.42
2023-03-17T05:32:02.685Z,-2.40
2023-03-17T05:34:32.742Z,-2.38
2023-03-17T05:37:02.400Z,-2.35
2023-03-17T05:39:34.001Z,-2.27
2023-03-17T05:42:03.599Z,-2.21
2023-03-17T05:44:33.951Z,-2.15
2023-03-17T05:47:03.525Z,-2.14
2023-03-17T05:49:33.501Z,-2.13
2023-03-17T05:52:03.251Z,-2.11
2023-03-17T05:54:34.697Z,-2.10
2023-03-17T05:57:04.622Z,-2.03
2023-03-17T05:59:34.642Z,-2.00
2023-03-17T06:02:04.608Z,-1.96
2023-03-17T06:04:34.587Z,-1.89
2023-03-17T06:07:05.136Z,-1.83
2023-03-17T06:09:36.824Z,-1.78
2023-03-17T06:12:07.026Z,-1.74
2023-03-17T06:14:37.990Z,-1.69
2023-03-17T06:17:07.675Z,-1.64
2023-03-17T06:19:37.733Z,-1.57
2023-03-17T06:22:07.421Z,-1.51
2023-03-17T06:24:39.302Z,-1.48
2023-03-17T06:27:11.153Z,-1.44
2023-03-17T06:29:41.215Z,-1.40
2023-03-17T06:32:20.231Z,-1.33
2023-03-17T06:34:51.709Z,-1.26
2023-03-17T06:37:21.489Z,-1.23
2023-03-17T06:39:53.027Z,-1.16
2023-03-17T06:42:22.674Z,-1.15
2023-03-17T06:44:53.741Z,-1.12
2023-03-17T06:47:25.912Z,-1.10
2023-03-17T06:49:56.000Z,-1.02
2023-03-17T06:52:25.688Z,-0.99
2023-03-17T06:54:57.180Z,-0.92
2023-03-17T06:57:27.344Z,-0.90
2023-03-17T06:59:57.277Z,-0.87
2023-03-17T07:02:27.138Z,-0.82
2023-03-17T07:04:58.002Z,-0.73
2023-03-17T07:07:27.916Z,-0.67
2023-03-17T07:09:59.791Z,-0.59
2023-03-17T07:12:29.376Z,-0.48
2023-03-17T07:14:59.620Z,-0.32
2023-03-17T07:17:29.200Z,-0.11
2023-03-17T07:19:59.336Z,0.04
2023-03-17T07:22:29.013Z,0.09
2023-03-17T07:25:00.639Z,0.19
2023-03-17T07:27:30.308Z,0.38
2023-03-17T07:30:02.561Z,0.58
2023-03-17T07:32:32.310Z,0.66
2023-03-17T07:35:02.351Z,0.71
2023-03-17T07:37:32.062Z,0.86
2023-03-17T07:40:03.730Z,0.87
2023-03-17T07:42:34.327Z,0.84
2023-03-17T07:45:05.300Z,0.88
2023-03-17T07:47:34.936Z,0.81
2023-03-17T07:50:05.423Z,0.76
2023-03-17T07:52:35.340Z,0.78
2023-03-17T07:55:08.812Z,0.84
2023-03-17T07:57:38.461Z,0.87
2023-03-17T08:00:10.654Z,0.93
2023-03-17T08:02:43.260Z,1.01
2023-03-17T08:05:14.572Z,1.10
2023-03-17T08:07:48.426Z,1.23
2023-03-17T08:10:23.047Z,1.32
2023-03-17T08:12:54.147Z,1.47
2023-03-17T08:15:36.225Z,1.70
2023-03-17T08:18:46.546Z,1.94
2023-03-17T08:21:19.340Z,2.10
2023-03-17T08:23:49.161Z,2.16
2023-03-17T08:26:21.213Z,2.22
2023-03-17T08:28:51.471Z,2.10
2023-03-17T08:31:22.925Z,2.11
2023-03-17T08:33:54.328Z,2.15
2023-03-17T08:36:32.165Z,2.21
2023-03-17T08:39:07.825Z,2.21
2023-03-17T08:41:42.408Z,2.26
2023-03-17T08:44:13.332Z,2.27
2023-03-17T08:46:43.824Z,2.29
2023-03-17T08:49:13.894Z,2.29
2023-03-17T08:51:44.946Z,2.27
2023-03-17T08:54:15.634Z,2.15
2023-03-17T08:56:48.008Z,2.23
2023-03-17T08:59:17.601Z,2.31
2023-03-17T09:01:47.684Z,2.41
2023-03-17T09:04:17.239Z,2.54
2023-03-17T09:07:02.261Z,2.75
2023-03-17T09:09:33.861Z,3.60
2023-03-17T09:12:06.566Z,3.96
2023-03-17T09:14:43.358Z,3.79
2023-03-17T09:17:15.668Z,3.69
2023-03-17T09:19:45.425Z,3.54
2023-03-17T09:22:16.348Z,3.46
2023-03-17T09:24:46.549Z,3.45
2023-03-17T09:27:18.000Z,3.34
2023-03-17T09:29:47.735Z,3.46
2023-03-17T09:32:18.126Z,3.62
2023-03-17T09:34:49.666Z,3.56
2023-03-17T09:37:21.504Z,3.62
2023-03-17T09:39:51.645Z,3.74
2023-03-17T09:42:37.424Z,3.73
2023-03-17T09:45:21.511Z,3.80
2023-03-17T09:48:06.780Z,3.79
2023-03-17T09:50:39.939Z,3.80
2023-03-17T09:53:14.562Z,3.86
2023-03-17T09:55:45.541Z,3.90
2023-03-17T09:58:17.104Z,4.02
2023-03-17T10:00:46.981Z,4.19
2023-03-17T10:03:18.155Z,4.41
2023-03-17T10:05:47.991Z,4.55
2023-03-17T10:08:32.437Z,4.63
2023-03-17T10:11:04.729Z,4.24
2023-03-17T10:13:44.200Z,5.06
2023-03-17T10:16:14.692Z,5.18
2023-03-17T10:18:48.834Z,5.30
2023-03-17T10:21:20.468Z,5.57
2023-03-17T10:23:50.721Z,5.75
2023-03-17T10:26:28.996Z,5.74
2023-03-17T10:29:05.759Z,5.96
2023-03-17T10:31:38.240Z,5.91
2023-03-17T10:34:14.632Z,5.96
2023-03-17T10:36:46.169Z,5.76
2023-03-17T10:39:18.816Z,5.59
2023-03-17T10:41:53.720Z,5.88
2023-03-17T10:44:30.938Z,5.94
2023-03-17T10:47:01.172Z,6.10
2023-03-17T10:49:36.576Z,5.96
2023-03-17T10:52:08.317Z,5.70
2023-03-17T10:54:39.606Z,5.74
2023-03-17T10:57:10.927Z,5.83
2023-03-17T10:59:56.643Z,5.79
2023-03-17T11:02:28.282Z,5.76
2023-03-17T11:05:01.391Z,5.98
2023-03-17T11:07:35.748Z,5.97
2023-03-17T11:10:06.866Z,6.05
2023-03-17T11:12:37.667Z,6.07
2023-03-17T11:15:12.510Z,6.08
2023-03-17T11:17:46.309Z,6.18
2023-03-17T11:20:29.319Z,6.27
2023-03-17T11:23:05.191Z,6.26
2023-03-17T11:25:40.603Z,6.23
2023-03-17T11:28:17.256Z,6.17
2023-03-17T11:30:54.042Z,6.21
2023-03-17T11:33:30.281Z,6.35
2023-03-17T11:36:03.733Z,6.55
2023-03-17T11:38:36.516Z,6.65
2023-03-17T11:41:23.014Z,6.44
2023-03-17T11:44:05.989Z,6.45
2023-03-17T11:46:38.540Z,6.61
2023-03-17T11:49:12.192Z,6.72
2023-03-17T11:51:51.609Z,6.85
2023-03-17T11:54:25.111Z,7.01
2023-03-17T11:56:57.687Z,7.03
2023-03-17T11:59:31.778Z,7.14
2023-03-17T12:02:07.488Z,7.22
2023-03-17T12:04:39.119Z,7.21
2023-03-17T12:07:14.635Z,7.24
2023-03-17T12:09:47.636Z,7.16
2023-03-17T12:12:22.715Z,7.22
2023-03-17T12:14:53.554Z,7.10
2023-03-17T12:17:30.310Z,7.19
2023-03-17T12:20:10.463Z,7.01
2023-03-17T12:22:43.391Z,7.09
2023-03-17T12:25:16.813Z,7.21
2023-03-17T12:27:51.582Z,7.31
2023-03-17T12:30:29.369Z,7.39
2023-03-17T12:33:13.377Z,7.26
2023-03-17T12:35:43.508Z,7.26
2023-03-17T12:38:15.232Z,7.13
2023-03-17T12:40:53.133Z,7.09
2023-03-17T12:43:36.644Z,7.11
2023-03-17T12:46:22.634Z,7.24
2023-03-17T12:49:13.768Z,7.18
2023-03-17T12:51:49.124Z,7.25
2023-03-17T12:54:20.621Z,7.44
2023-03-17T12:56:51.015Z,7.44
2023-03-17T12:59:24.411Z,7.48
2023-03-17T13:01:58.982Z,7.63
2023-03-17T13:04:32.690Z,7.74
2023-03-17T13:07:06.490Z,7.95
2023-03-17T13:09:48.039Z,8.23
2023-03-17T13:12:38.457Z,8.62
2023-03-17T13:15:23.444Z,8.83
2023-03-17T13:18:12.864Z,8.98
2023-03-17T13:20:44.997Z,8.63
2023-03-17T13:23:19.119Z,8.57
2023-03-17T13:25:53.740Z,8.46
2023-03-17T13:28:28.393Z,8.65
2023-03-17T13:31:09.084Z,8.60
2023-03-17T13:33:43.810Z,8.64
2023-03-17T13:36:28.771Z,8.93
2023-03-17T13:39:25.164Z,9.66
2023-03-17T13:42:17.711Z,10.23
2023-03-17T13:44:55.324Z,8.99
2023-03-17T13:47:30.182Z,8.49
2023-03-17T13:50:04.719Z,8.22
2023-03-17T13:52:36.263Z,8.09
2023-03-17T13:55:30.239Z,7.98
2023-03-17T13:58:15.932Z,7.87
2023-03-17T14:00:47.123Z,7.97
2023-03-17T14:03:19.550Z,7.96
2023-03-17T14:05:51.672Z,8.05
2023-03-17T14:08:27.017Z,8.03
2023-03-17T14:11:01.598Z,8.06
2023-03-17T14:13:37.696Z,8.13
2023-03-17T14:16:13.917Z,8.11
2023-03-17T14:18:46.673Z,8.01
2023-03-17T14:21:23.826Z,7.96
2023-03-17T14:23:57.466Z,7.83
2023-03-17T14:26:29.874Z,7.87
2023-03-17T14:29:00.838Z,7.81
2023-03-17T14:31:31.025Z,7.82
2023-03-17T14:34:01.571Z,7.80
2023-03-17T14:36:34.330Z,7.67
2023-03-17T14:39:04.725Z,7.55
2023-03-17T14:41:36.650Z,7.60
2023-03-17T14:44:09.935Z,7.54
2023-03-17T14:46:41.433Z,7.53
2023-03-17T14:49:16.914Z,7.48
2023-03-17T14:51:47.005Z,7.41
2023-03-17T14:54:19.624Z,7.44
2023-03-17T14:56:53.050Z,7.47
2023-03-17T14:59:25.575Z,7.46
2023-03-17T15:01:56.889Z,7.45
2023-03-17T15:04:29.736Z,7.44
2023-03-17T15:07:00.477Z,7.46
2023-03-17T15:09:33.463Z,7.45
2023-03-17T15:12:07.126Z,7.46
2023-03-17T15:14:39.652Z,7.51
2023-03-17T15:17:20.859Z,7.48
2023-03-17T15:19:52.792Z,7.44
2023-03-17T15:22:27.004Z,7.48
2023-03-17T15:25:01.253Z,7.40
2023-03-17T15:27:33.533Z,7.38
2023-03-17T15:30:03.837Z,7.33
2023-03-17T15:32:33.645Z,7.31
2023-03-17T15:35:05.410Z,7.31
2023-03-17T15:37:35.798Z,7.23
2023-03-17T15:40:07.809Z,7.21
2023-03-17T15:42:41.043Z,7.16
2023-03-17T15:45:13.193Z,7.11
2023-03-17T15:47:43.952Z,7.11
2023-03-17T15:50:19.032Z,7.02
2023-03-17T15:52:48.683Z,6.97
2023-03-17T15:55:21.692Z,6.92
2023-03-17T15:57:55.931Z,6.88
2023-03-17T16:00:30.118Z,6.83
2023-03-17T16:03:02.913Z,6.78
2023-03-17T16:05:34.264Z,6.72
2023-03-17T16:08:04.366Z,6.69
2023-03-17T16:10:34.894Z,6.68
2023-03-17T16:13:09.066Z,6.67
2023-03-17T16:15:41.157Z,6.60
2023-03-17T16:18:14.085Z,6.57
2023-03-17T16:20:45.314Z,6.54
2023-03-17T16:23:17.115Z,6.52
2023-03-17T16:25:47.573Z,6.47
2023-03-17T16:28:19.528Z,6.43
2023-03-17T16:30:50.356Z,6.34
2023-03-17T16:33:23.707Z,6.24
2023-03-17T16:35:55.938Z,6.23
2023-03-17T16:38:26.268Z,6.20
2023-03-17T16:40:56.865Z,6.13
2023-03-17T16:43:29.077Z,6.11
2023-03-17T16:45:59.758Z,6.04
2023-03-17T16:48:29.740Z,5.98
2023-03-17T16:51:00.273Z,5.94
2023-03-17T16:53:29.939Z,5.96
2023-03-17T16:56:00.080Z,5.99
2023-03-17T16:58:32.468Z,5.95
2023-03-17T17:01:03.821Z,5.93
2023-03-17T17:03:33.459Z,5.92
2023-03-17T17:06:03.633Z,5.86
2023-03-17T17:08:33.483Z,5.83
2023-03-17T17:11:03.459Z,5.78
2023-03-17T17:13:34.780Z,5.76
2023-03-17T17:16:05.528Z,5.76
2023-03-17T17:18:37.803Z,5.71
2023-03-17T17:21:08.227Z,5.72
2023-03-17T17:23:38.137Z,5.68
2023-03-17T17:26:08.365Z,5.61
2023-03-17T17:28:41.265Z,5.55
2023-03-17T17:31:13.235Z,5.46
2023-03-17T17:33:42.815Z,5.41
2023-03-17T17:36:15.934Z,5.38
2023-03-17T17:38:46.389Z,5.30
2023-03-17T17:41:17.354Z,5.23
2023-03-17T17:43:48.691Z,5.16
2023-03-17T17:46:20.885Z,5.08
2023-03-17T17:48:50.944Z,5.03
2023-03-17T17:51:21.237Z,4.98
2023-03-17T17:53:51.936Z,4.93
2023-03-17T17:56:21.922Z,4.88
2023-03-17T17:58:52.892Z,4.89
2023-03-17T18:01:22.974Z,4.84
2023-03-17T18:03:52.793Z,4.79
2023-03-17T18:06:22.893Z,4.72
2023-03-17T18:08:52.746Z,4.71
2023-03-17T18:11:22.800Z,4.42
2023-03-17T18:13:54.584Z,4.54
2023-03-17T18:16:27.033Z,4.54
2023-03-17T18:18:58.009Z,4.53
2023-03-17T18:21:28.024Z,4.50
2023-03-17T18:23:58.136Z,4.50
2023-03-17T18:26:28.837Z,4.40
2023-03-17T18:29:00.463Z,4.37
2023-03-17T18:31:34.285Z,4.37
2023-03-17T18:34:06.631Z,4.33
2023-03-17T18:36:36.719Z,4.37
2023-03-17T18:39:06.740Z,4.32
2023-03-17T18:41:36.703Z,4.36
2023-03-17T18:44:10.433Z,4.33
2023-03-17T18:46:40.326Z,4.30
2023-03-17T18:49:10.274Z,4.27
2023-03-17T18:51:40.211Z,4.25
2023-03-17T18:54:09.952Z,4.27
2023-03-17T18:56:39.914Z,4.24
2023-03-17T18:59:10.973Z,4.29
2023-03-17T19:01:41.074Z,4.28
2023-03-17T19:04:10.805Z,4.22
2023-03-17T19:06:42.829Z,4.21
2023-03-17T19:09:13.263Z,4.12
2023-03-17T19:11:43.522Z,4.11
2023-03-17T19:14:14.652Z,4.07
2023-03-17T19:16:45.288Z,4.19
2023-03-17T19:19:15.132Z,4.26
2023-03-17T19:21:45.254Z,4.21
2023-03-17T19:24:15.743Z,4.14
2023-03-17T19:26:45.703Z,4.10
2023-03-17T19:29:17.142Z,4.13
2023-03-17T19:31:48.596Z,4.14
2023-03-17T19:34:18.682Z,4.11
2023-03-17T19:36:48.973Z,4.20
2023-03-17T19:39:18.984Z,4.17
2023-03-17T19:41:53.545Z,4.14
2023-03-17T19:44:25.145Z,4.16
2023-03-17T19:46:55.075Z,4.18
2023-03-17T19:49:24.876Z,4.16
2023-03-17T19:51:55.059Z,4.14
2023-03-17T19:54:24.949Z,4.04
2023-03-17T19:56:54.978Z,4.02
2023-03-17T19:59:26.186Z,4.06
2023-03-17T20:01:56.414Z,4.07
2023-03-17T20:04:26.063Z,4.16
2023-03-17T20:06:57.354Z,4.14
2023-03-17T20:09:27.590Z,4.16
2023-03-17T20:11:57.642Z,4.08
2023-03-17T20:14:29.163Z,4.18
2023-03-17T20:16:59.227Z,4.20
2023-03-17T20:19:29.425Z,4.28
2023-03-17T20:22:00.004Z,4.21
2023-03-17T20:24:30.404Z,4.20
2023-03-17T20:27:00.619Z,4.27
2023-03-17T20:29:32.164Z,4.29
2023-03-17T20:32:02.476Z,4.28
2023-03-17T20:34:34.886Z,4.32
2023-03-17T20:37:05.563Z,4.30
2023-03-17T20:39:35.163Z,4.23
2023-03-17T20:42:10.493Z,4.23
2023-03-17T20:44:42.154Z,4.25
2023-03-17T20:47:14.401Z,4.22
2023-03-17T20:49:44.211Z,4.17
2023-03-17T20:52:16.250Z,4.16
2023-03-17T20:54:45.972Z,4.16
2023-03-17T20:57:16.468Z,4.21
2023-03-17T20:59:48.142Z,4.19
2023-03-17T21:02:20.073Z,4.17
2023-03-17T21:04:49.922Z,4.23
2023-03-17T21:07:21.428Z,4.15
2023-03-17T21:09:51.910Z,4.17
2023-03-17T21:12:22.402Z,4.16
2023-03-17T21:14:53.601Z,4.17
2023-03-17T21:17:26.292Z,4.17
2023-03-17T21:19:57.220Z,4.15
2023-03-17T21:22:27.294Z,4.14
2023-03-17T21:24:57.501Z,4.14
2023-03-17T21:27:33.362Z,4.14
2023-03-17T21:30:06.544Z,4.07
2023-03-17T21:32:39.373Z,4.04
2023-03-17T21:35:13.040Z,4.01
2023-03-17T21:37:44.994Z,3.96
2023-03-17T21:40:17.161Z,3.89
2023-03-17T21:42:50.592Z,3.83
2023-03-17T21:45:24.228Z,3.85
2023-03-17T21:47:55.757Z,3.77
2023-03-17T21:50:30.190Z,3.31
2023-03-17T21:53:05.973Z,3.67
2023-03-17T21:55:42.411Z,3.65
2023-03-17T21:58:14.147Z,3.72
2023-03-17T22:00:47.072Z,3.69
2023-03-17T22:03:18.163Z,3.71
2023-03-17T22:05:49.693Z,3.80
2023-03-17T22:08:22.502Z,3.86
2023-03-17T22:10:54.576Z,3.88
2023-03-17T22:13:26.766Z,3.87
2023-03-17T22:16:02.650Z,3.94
2023-03-17T22:18:34.032Z,3.90
2023-03-17T22:21:04.349Z,3.85
2023-03-17T22:23:40.009Z,3.90
2023-03-17T22:26:10.740Z,3.92
2023-03-17T22:28:41.054Z,3.99
2023-03-17T22:31:16.667Z,3.95
2023-03-17T22:33:47.132Z,3.90
2023-03-17T22:36:18.233Z,3.93
2023-03-17T22:38:50.412Z,3.96
2023-03-17T22:41:21.305Z,3.92
2023-03-17T22:43:51.713Z,3.94
2023-03-17T22:46:23.787Z,3.91
2023-03-17T22:48:54.555Z,3.99
2023-03-17T22:51:25.812Z,4.03
2023-03-17T22:53:56.286Z,4.11
2023-03-17T22:56:26.837Z,4.02
2023-03-17T22:58:57.502Z,3.98
2023-03-17T23:01:29.228Z,3.97
2023-03-17T23:03:59.461Z,4.00
2023-03-17T23:06:29.195Z,3.98
2023-03-17T23:08:59.117Z,3.97
2023-03-17T23:11:28.833Z,3.98
2023-03-17T23:13:58.857Z,4.05
2023-03-17T23:16:30.316Z,3.99
2023-03-17T23:19:00.685Z,4.06
2023-03-17T23:21:31.120Z,4.07
2023-03-17T23:24:02.513Z,4.02
2023-03-17T23:26:32.342Z,4.03
2023-03-17T23:29:02.276Z,3.99
2023-03-17T23:31:34.368Z,4.01
2023-03-17T23:34:04.642Z,4.00
2023-03-17T23:36:35.335Z,3.93
2023-03-17T23:39:05.333Z,3.98
2023-03-17T23:41:35.001Z,3.96
2023-03-17T23:44:05.849Z,3.98
2023-03-17T23:46:36.889Z,3.96
2023-03-17T23:49:07.616Z,3.93
2023-03-17T23:51:37.250Z,3.92
2023-03-17T23:54:08.069Z,3.87
2023-03-17T23:56:37.888Z,3.92
2023-03-17T23:59:08.439Z,3.93
